Time;durP1;ratioP1;P1;durP2;ratioP2;P2;SDS_P1;SDS_P2;PMS_P1;PMS_P2;Temp;Humidity;BMP_temperature;BMP_pressure;BME280_temperature;BME280_humidity;BME280_pressure;Samples;Min_cycle;Max_cycle;Signal;HPM_P1;HPM_P2
2022/07/25 00:00:23;;;;;;;9.15;8.32;;;;;21.60;94142.00;;;;7391997;19;20160;-73
2022/07/25 00:02:51;;;;;;;9.07;8.15;;;;;21.40;94138.00;;;;7393528;19;20143;-73
2022/07/25 00:05:25;;;;;;;9.32;7.95;;;;;21.20;94137.00;;;;7391021;19;20141;-73
2022/07/25 00:07:52;;;;;;;9.57;8.68;;;;;21.30;94138.00;;;;7390167;19;20140;-74
2022/07/25 00:10:20;;;;;;;9.48;8.38;;;;;21.30;94131.00;;;;7388198;19;20180;-73
2022/07/25 00:12:54;;;;;;;10.20;9.15;;;;;21.40;94125.00;;;;7391801;19;20156;-73
2022/07/25 00:15:21;;;;;;;10.07;8.55;;;;;21.40;94128.00;;;;7390656;19;20594;-73
2022/07/25 00:17:49;;;;;;;9.50;8.65;;;;;21.30;94130.00;;;;7391576;19;20630;-73
2022/07/25 00:20:23;;;;;;;10.65;9.00;;;;;21.60;94131.00;;;;7390594;19;20141;-73
2022/07/25 00:22:50;;;;;;;10.43;8.75;;;;;21.80;94122.00;;;;7392876;19;20149;-73
2022/07/25 00:25:18;;;;;;;9.32;8.43;;;;;22.00;94124.00;;;;7392765;19;20618;-73
2022/07/25 00:27:52;;;;;;;9.32;8.52;;;;;22.20;94119.00;;;;7387826;19;20137;-73
2022/07/25 00:30:19;;;;;;;9.77;8.88;;;;;22.30;94116.00;;;;7391935;19;20142;-73
2022/07/25 00:32:47;;;;;;;9.15;8.35;;;;;22.40;94117.00;;;;7393460;19;20172;-73
2022/07/25 00:35:21;;;;;;;8.60;7.80;;;;;22.50;94110.00;;;;7390289;19;20587;-73
2022/07/25 00:37:48;;;;;;;8.48;7.65;;;;;22.40;94109.00;;;;7392142;19;20129;-74
2022/07/25 00:40:16;;;;;;;9.40;8.07;;;;;22.30;94116.00;;;;7391100;19;20632;-74
2022/07/25 00:42:50;;;;;;;9.48;7.70;;;;;22.40;94112.00;;;;7393489;19;20125;-73
2022/07/25 00:45:17;;;;;;;7.95;7.25;;;;;22.50;94110.00;;;;7390394;19;20595;-73
2022/07/25 00:47:45;;;;;;;8.80;8.00;;;;;22.60;94102.00;;;;7389102;19;20949;-72
2022/07/25 00:50:19;;;;;;;8.98;7.80;;;;;22.50;94107.00;;;;7388995;19;20177;-73
2022/07/25 00:52:47;;;;;;;9.10;7.93;;;;;22.60;94096.00;;;;7391766;19;20147;-73
2022/07/25 00:55:15;;;;;;;8.27;7.38;;;;;22.60;94097.00;;;;7392781;19;20145;-73
2022/07/25 00:57:49;;;;;;;7.75;7.05;;;;;22.70;94097.00;;;;7388664;19;20630;-73
2022/07/25 01:00:17;;;;;;;14.45;7.65;;;;;22.70;94093.00;;;;7389188;19;20157;-78
2022/07/25 01:02:45;;;;;;;8.07;7.00;;;;;22.80;94094.00;;;;7392612;19;20484;-79
2022/07/25 01:05:19;;;;;;;8.20;7.40;;;;;22.70;94089.00;;;;7389330;19;20485;-80
2022/07/25 01:07:47;;;;;;;8.02;7.22;;;;;22.60;94086.00;;;;7393978;19;20248;-79
2022/07/25 01:10:14;;;;;;;10.85;7.25;;;;;22.60;94083.00;;;;7397541;19;20180;-81
2022/07/25 01:12:58;;;;;;;7.35;6.65;;;;;22.70;94079.00;;;;7396337;19;20227;-77
2022/07/25 01:15:26;;;;;;;10.40;7.07;;;;;22.60;94079.00;;;;7395139;19;20618;-80
2022/07/25 01:18:01;;;;;;;8.20;7.40;;;;;22.50;94080.00;;;;7398815;19;20613;-79
2022/07/25 01:20:31;;;;;;;9.35;7.57;;;;;22.50;94081.00;;;;7398973;19;20503;-80
2022/07/25 01:22:59;;;;;;;8.20;7.43;;;;;22.30;94078.00;;;;7396614;19;20181;-79
2022/07/25 01:25:34;;;;;;;8.38;7.40;;;;;22.30;94079.00;;;;7397828;19;20590;-79
2022/07/25 01:28:02;;;;;;;8.52;7.28;;;;;22.40;94074.00;;;;7393498;19;20151;-79
2022/07/25 01:30:30;;;;;;;9.50;7.07;;;;;22.30;94080.00;;;;7396447;19;20156;-80
2022/07/25 01:33:04;;;;;;;7.85;6.93;;;;;22.20;94082.00;;;;7394676;19;20152;-81
2022/07/25 01:35:33;;;;;;;7.78;7.07;;;;;22.20;94071.00;;;;7397275;19;20157;-77
2022/07/25 01:38:05;;;;;;;8.00;7.25;;;;;22.20;94069.00;;;;7396941;19;20144;-79
2022/07/25 01:40:40;;;;;;;8.35;6.75;;;;;22.30;94071.00;;;;7397480;19;20503;-81
2022/07/25 01:43:08;;;;;;;7.60;6.90;;;;;22.20;94078.00;;;;7395593;19;20159;-80
2022/07/25 01:45:36;;;;;;;7.40;6.70;;;;;22.20;94072.00;;;;7397050;19;20538;-79
2022/07/25 01:48:10;;;;;;;7.57;6.88;;;;;22.40;94066.00;;;;7394116;19;20132;-80
2022/07/25 01:50:37;;;;;;;8.10;7.40;;;;;22.30;94065.00;;;;7396781;19;20141;-80
2022/07/25 01:53:05;;;;;;;7.68;6.97;;;;;22.30;94065.00;;;;7394912;19;20151;-80
2022/07/25 01:55:39;;;;;;;8.00;7.22;;;;;22.30;94069.00;;;;7397586;19;20133;-80
2022/07/25 01:58:06;;;;;;;7.50;6.80;;;;;22.20;94057.00;;;;7394212;19;20132;-80
2022/07/25 02:00:34;;;;;;;8.70;7.80;;;;;22.30;94063.00;;;;7396077;19;20599;-79
2022/07/25 02:05:54;;;;;;;9.25;7.43;;;;;22.60;94040.00;;;;7396176;19;20571;-79
2022/07/25 02:08:29;;;;;;;7.85;7.05;;;;;22.80;94049.00;;;;7396046;19;20192;-80
2022/07/25 02:11:10;;;;;;;7.93;7.22;;;;;22.70;94044.00;;;;7396814;19;20610;-79
2022/07/25 02:13:45;;;;;;;7.70;6.97;;;;;22.60;94040.00;;;;7394211;19;20762;-78
2022/07/25 02:16:13;;;;;;;8.63;7.55;;;;;22.70;94031.00;;;;7394898;19;20169;-80
2022/07/25 02:18:47;;;;;;;9.60;7.45;;;;;22.60;94025.00;;;;7397045;19;20510;-80
2022/07/25 02:21:22;;;;;;;8.05;7.05;;;;;22.60;94041.00;;;;7393610;19;20152;-79
2022/07/25 02:23:49;;;;;;;8.35;7.55;;;;;22.70;94036.00;;;;7394777;19;20117;-80
2022/07/25 02:26:17;;;;;;;7.88;7.07;;;;;22.80;94042.00;;;;7396749;19;20780;-80
2022/07/25 02:28:51;;;;;;;8.38;7.32;;;;;22.70;94042.00;;;;7396008;19;20152;-80
2022/07/25 02:31:19;;;;;;;8.90;7.20;;;;;22.70;94029.00;;;;7392822;19;20152;-78
2022/07/25 02:33:46;;;;;;;11.57;7.07;;;;;22.70;94032.00;;;;7396946;19;20196;-79
2022/07/25 02:36:21;;;;;;;6.80;6.20;;;;;22.60;94032.00;;;;7395774;19;20139;-80
2022/07/25 02:38:48;;;;;;;7.25;6.55;;;;;22.60;94034.00;;;;7395875;19;20182;-79
2022/07/25 02:41:16;;;;;;;8.00;7.20;;;;;22.70;94035.00;;;;7392975;19;20537;-79
2022/07/25 02:43:50;;;;;;;7.68;6.88;;;;;22.70;94040.00;;;;7395882;19;20158;-78
2022/07/25 02:46:17;;;;;;;8.25;7.45;;;;;22.60;94037.00;;;;7394773;19;20256;-79
2022/07/25 02:48:45;;;;;;;8.23;6.57;;;;;22.60;94036.00;;;;7396229;19;20146;-79
2022/07/25 02:51:19;;;;;;;7.97;7.18;;;;;22.70;94032.00;;;;7393188;19;20158;-78
2022/07/25 02:53:46;;;;;;;7.22;6.63;;;;;22.80;94028.00;;;;7393580;19;20638;-79
2022/07/25 02:56:24;;;;;;;7.43;6.70;;;;;22.80;94017.00;;;;7393961;19;20645;-80
2022/07/25 02:58:58;;;;;;;7.43;6.78;;;;;22.70;94019.00;;;;7390873;19;20588;-77
2022/07/25 03:01:26;;;;;;;7.90;7.10;;;;;22.60;94015.00;;;;7391729;19;20134;-80
2022/07/25 03:03:54;;;;;;;7.80;7.10;;;;;22.50;94019.00;;;;7395034;19;20223;-80
2022/07/25 03:06:28;;;;;;;7.47;6.78;;;;;22.50;94016.00;;;;7395761;19;20128;-79
2022/07/25 03:08:55;;;;;;;9.02;7.40;;;;;22.60;94022.00;;;;7395386;19;20650;-80
2022/07/25 03:11:23;;;;;;;9.82;7.47;;;;;22.50;94015.00;;;;7389745;19;20211;-80
2022/07/25 03:13:57;;;;;;;8.02;7.00;;;;;22.40;94020.00;;;;7392477;19;20155;-79
2022/07/25 03:16:25;;;;;;;7.53;6.82;;;;;22.40;94014.00;;;;7392847;19;20182;-79
2022/07/25 03:18:52;;;;;;;7.40;6.80;;;;;22.40;94010.00;;;;7395879;19;20591;-80
2022/07/25 03:21:26;;;;;;;8.85;6.93;;;;;22.30;94013.00;;;;7392291;19;20601;-79
2022/07/25 03:23:53;;;;;;;7.53;6.80;;;;;22.40;94009.00;;;;7394217;19;20305;-80
2022/07/25 03:26:21;;;;;;;7.53;6.80;;;;;22.40;94010.00;;;;7393155;19;20145;-79
2022/07/25 03:28:55;;;;;;;7.10;6.45;;;;;22.30;94005.00;;;;7386563;19;20184;-79
2022/07/25 03:31:23;;;;;;;7.70;7.00;;;;;22.30;94006.00;;;;7393439;19;20157;-80
2022/07/25 03:33:53;;;;;;;7.57;6.88;;;;;22.40;93998.00;;;;7392418;19;20140;-81
2022/07/25 03:36:27;;;;;;;7.72;6.93;;;;;22.30;94005.00;;;;7392716;19;20163;-80
2022/07/25 03:38:56;;;;;;;9.90;7.00;;;;;22.30;94000.00;;;;7394718;19;20166;-79
2022/07/25 03:41:23;;;;;;;7.72;7.05;;;;;22.30;93991.00;;;;7391336;19;20160;-80
2022/07/25 03:43:58;;;;;;;7.15;6.55;;;;;22.30;93996.00;;;;7390850;19;20152;-79
2022/07/25 03:46:26;;;;;;;7.43;6.72;;;;;22.20;93988.00;;;;7391712;19;20133;-79
2022/07/25 03:48:54;;;;;;;7.50;6.75;;;;;22.20;93990.00;;;;7392398;19;20120;-80
2022/07/25 03:51:28;;;;;;;6.93;6.32;;;;;22.10;93987.00;;;;7389064;19;20148;-79
2022/07/25 03:54:01;;;;;;;7.00;6.30;;;;;22.00;93986.00;;;;7392210;19;20228;-78
2022/07/25 03:56:38;;;;;;;6.50;6.00;;;;;22.00;93982.00;;;;7391092;19;20164;-79
2022/07/25 03:59:12;;;;;;;7.30;6.32;;;;;21.90;93969.00;;;;7390369;19;20597;-79
2022/07/25 04:01:49;;;;;;;8.00;7.20;;;;;21.90;93970.00;;;;7390798;19;20136;-79
2022/07/25 04:04:18;;;;;;;8.38;6.38;;;;;22.00;93972.00;;;;7388759;19;20137;-78
2022/07/25 04:06:46;;;;;;;7.20;6.47;;;;;21.90;93980.00;;;;7386613;19;20160;-77
2022/07/25 04:09:20;;;;;;;7.40;6.57;;;;;21.90;93972.00;;;;7387807;19;21291;-79
2022/07/25 04:11:54;;;;;;;7.80;7.00;;;;;22.00;93966.00;;;;7387286;19;20199;-79
2022/07/25 04:14:29;;;;;;;7.55;6.93;;;;;21.90;93971.00;;;;7389953;19;20165;-78
2022/07/25 04:16:56;;;;;;;6.95;6.35;;;;;22.00;93973.00;;;;7390510;19;20614;-77
2022/07/25 04:19:24;;;;;;;8.68;7.38;;;;;22.10;93966.00;;;;7388412;19;20578;-78
2022/07/25 04:21:59;;;;;;;8.32;6.80;;;;;22.10;93960.00;;;;7389167;19;20143;-78
2022/07/25 04:24:26;;;;;;;7.93;6.85;;;;;21.90;93968.00;;;;7391826;19;20129;-80
2022/07/25 04:26:54;;;;;;;8.55;6.65;;;;;21.90;93974.00;;;;7387891;19;20607;-80
2022/07/25 04:29:28;;;;;;;7.65;6.95;;;;;22.00;93968.00;;;;7391486;19;20136;-80
2022/07/25 04:31:56;;;;;;;7.68;6.45;;;;;22.00;93964.00;;;;7389149;19;20144;-79
2022/07/25 04:34:25;;;;;;;9.18;7.70;;;;;22.10;93967.00;;;;7390592;19;20244;-80
2022/07/25 04:36:59;;;;;;;8.90;7.15;;;;;22.30;93965.00;;;;7387990;19;20927;-79
2022/07/25 04:39:26;;;;;;;7.78;6.90;;;;;22.20;93959.00;;;;7389934;19;20146;-80
2022/07/25 04:41:54;;;;;;;10.23;7.55;;;;;22.30;93964.00;;;;7392295;19;20137;-78
2022/07/25 04:44:28;;;;;;;8.10;7.40;;;;;22.30;93961.00;;;;7395412;19;20152;-80
2022/07/25 04:46:55;;;;;;;8.23;7.50;;;;;22.50;93956.00;;;;7399090;19;20156;-78
2022/07/25 04:49:23;;;;;;;8.40;7.70;;;;;22.50;93953.00;;;;7396002;19;20188;-80
2022/07/25 04:51:57;;;;;;;8.60;7.70;;;;;22.70;93958.00;;;;7395726;19;20153;-80
2022/07/25 04:54:24;;;;;;;8.20;7.40;;;;;22.80;93944.00;;;;7396635;19;20168;-79
2022/07/25 04:56:52;;;;;;;9.48;7.55;;;;;22.90;93950.00;;;;7397674;19;20760;-79
2022/07/25 04:59:26;;;;;;;9.00;8.20;;;;;23.10;93948.00;;;;7394061;19;20595;-80
2022/07/25 05:01:53;;;;;;;8.93;8.02;;;;;23.10;93943.00;;;;7394546;19;20682;-79
2022/07/25 05:04:21;;;;;;;8.40;7.57;;;;;23.20;93945.00;;;;7396743;19;20125;-78
2022/07/25 05:06:55;;;;;;;8.82;7.97;;;;;23.30;93941.00;;;;7397641;19;20149;-78
2022/07/25 05:09:22;;;;;;;10.98;7.72;;;;;23.50;93946.00;;;;7391766;19;20168;-80
2022/07/25 05:11:50;;;;;;;9.93;8.38;;;;;23.50;93949.00;;;;7394999;19;20205;-78
2022/07/25 05:14:24;;;;;;;9.10;8.20;;;;;23.70;93940.00;;;;7396536;19;20149;-77
2022/07/25 05:16:51;;;;;;;9.43;8.25;;;;;23.70;93940.00;;;;7397619;19;20165;-79
2022/07/25 05:19:19;;;;;;;9.05;8.15;;;;;24.00;93942.00;;;;7394707;19;20140;-76
2022/07/25 05:21:53;;;;;;;9.20;8.30;;;;;24.20;93941.00;;;;7396508;19;20610;-80
2022/07/25 05:24:23;;;;;;;9.80;7.93;;;;;24.20;93936.00;;;;7399996;19;20133;-79
2022/07/25 05:26:51;;;;;;;10.35;8.57;;;;;24.20;93931.00;;;;7403198;19;20133;-77
2022/07/25 05:29:27;;;;;;;10.18;8.07;;;;;24.20;93929.00;;;;7397975;19;20511;-77
2022/07/25 05:31:55;;;;;;;8.88;7.97;;;;;24.50;93930.00;;;;7399636;19;20145;-78
2022/07/25 05:34:23;;;;;;;8.32;7.53;;;;;24.60;93922.00;;;;7399305;19;20148;-78
2022/07/25 05:36:57;;;;;;;10.63;8.20;;;;;24.60;93929.00;;;;7401168;19;20585;-78
2022/07/25 05:39:26;;;;;;;9.55;8.55;;;;;24.90;93921.00;;;;7399655;19;20164;-78
2022/07/25 05:41:54;;;;;;;9.02;8.13;;;;;25.00;93922.00;;;;7399109;19;20166;-79
2022/07/25 05:44:28;;;;;;;9.07;8.27;;;;;25.00;93914.00;;;;7401868;19;20129;-79
2022/07/25 05:46:56;;;;;;;8.93;8.02;;;;;25.20;93921.00;;;;7403721;19;20138;-77
2022/07/25 05:49:24;;;;;;;9.90;9.00;;;;;25.20;93919.00;;;;7395805;19;20147;-78
2022/07/25 05:51:59;;;;;;;8.48;7.65;;;;;25.30;93916.00;;;;7397114;19;20220;-77
2022/07/25 05:54:27;;;;;;;8.68;7.97;;;;;25.50;93913.00;;;;7398595;19;20232;-78
2022/07/25 05:56:55;;;;;;;8.90;8.10;;;;;25.60;93915.00;;;;7402176;19;20129;-78
2022/07/25 05:59:29;;;;;;;9.05;8.20;;;;;25.70;93904.00;;;;7398577;19;20583;-77
2022/07/25 06:01:57;;;;;;;7.55;6.95;;;;;25.80;93905.00;;;;7397287;19;20757;-77
2022/07/25 06:04:26;;;;;;;10.15;7.75;;;;;26.00;93912.00;;;;7398385;19;20149;-78
2022/07/25 06:07:00;;;;;;;8.50;7.45;;;;;26.10;93899.00;;;;7400135;19;20144;-78
2022/07/25 06:09:30;;;;;;;8.80;7.90;;;;;26.30;93901.00;;;;7395792;19;20153;-79
2022/07/25 06:11:58;;;;;;;9.20;7.78;;;;;26.40;93900.00;;;;7395466;19;20242;-78
2022/07/25 06:14:35;;;;;;;9.00;7.63;;;;;26.60;93901.00;;;;7400424;19;20176;-78
2022/07/25 06:17:02;;;;;;;8.80;7.97;;;;;27.00;93898.00;;;;7399123;19;20174;-78
2022/07/25 06:19:30;;;;;;;8.50;7.80;;;;;27.20;93895.00;;;;7396679;19;20151;-78
2022/07/25 06:22:07;;;;;;;9.00;8.10;;;;;27.50;93894.00;;;;7398125;19;20170;-77
2022/07/25 06:24:35;;;;;;;8.77;7.97;;;;;27.80;93896.00;;;;7401748;19;20196;-79
2022/07/25 06:27:03;;;;;;;8.25;7.40;;;;;28.10;93893.00;;;;7397430;19;20136;-78
2022/07/25 06:29:43;;;;;;;8.35;7.47;;;;;28.20;93893.00;;;;7394088;19;20148;-79
2022/07/25 06:32:11;;;;;;;8.38;7.50;;;;;28.30;93898.00;;;;7397116;19;20162;-77
2022/07/25 06:34:45;;;;;;;8.32;7.63;;;;;28.60;93898.00;;;;7397745;19;20461;-78
2022/07/25 06:37:14;;;;;;;7.80;7.10;;;;;28.90;93899.00;;;;7399751;19;20185;-79
2022/07/25 06:39:42;;;;;;;8.07;7.30;;;;;28.80;93894.00;;;;7398914;19;20498;-78
2022/07/25 06:42:18;;;;;;;8.32;7.63;;;;;28.70;93891.00;;;;7397134;19;20156;-79
2022/07/25 06:44:49;;;;;;;7.50;6.90;;;;;28.80;93884.00;;;;7399829;19;20166;-79
2022/07/25 06:47:17;;;;;;;8.48;7.68;;;;;28.80;93892.00;;;;7400654;19;20121;-80
2022/07/25 06:49:51;;;;;;;7.97;7.28;;;;;28.80;93889.00;;;;7394897;19;20129;-76
2022/07/25 06:52:19;;;;;;;9.25;7.90;;;;;28.80;93885.00;;;;7397700;19;20149;-78
2022/07/25 06:54:47;;;;;;;7.93;7.15;;;;;29.00;93891.00;;;;7396441;19;20583;-80
2022/07/25 06:57:22;;;;;;;8.82;7.55;;;;;29.10;93891.00;;;;7397855;19;20125;-77
2022/07/25 06:59:50;;;;;;;7.47;6.88;;;;;29.20;93891.00;;;;7395205;19;20608;-79
2022/07/25 07:02:19;;;;;;;7.63;6.93;;;;;29.20;93883.00;;;;7395436;19;20156;-77
2022/07/25 07:04:53;;;;;;;7.30;6.68;;;;;29.30;93883.00;;;;7392915;19;20163;-77
2022/07/25 07:07:21;;;;;;;8.43;7.40;;;;;29.40;93891.00;;;;7393868;19;20141;-77
2022/07/25 07:09:49;;;;;;;7.88;7.00;;;;;29.40;93888.00;;;;7392069;19;20507;-78
2022/07/25 07:12:29;;;;;;;8.35;7.20;;;;;29.40;93883.00;;;;7389882;19;20204;-77
2022/07/25 07:14:57;;;;;;;10.85;6.85;;;;;29.10;93890.00;;;;7393904;19;20152;-77
2022/07/25 07:17:32;;;;;;;9.63;7.70;;;;;29.40;93887.00;;;;7395668;19;20124;-77
2022/07/25 07:20:01;;;;;;;7.35;6.63;;;;;29.50;93895.00;;;;7395413;19;20169;-78
2022/07/25 07:22:29;;;;;;;7.43;6.72;;;;;29.70;93896.00;;;;7395878;19;20176;-78
2022/07/25 07:25:04;;;;;;;7.82;7.03;;;;;29.70;93896.00;;;;7393521;19;20468;-77
2022/07/25 07:27:32;;;;;;;8.02;6.93;;;;;29.40;93895.00;;;;7392821;19;20141;-79
2022/07/25 07:30:00;;;;;;;7.65;6.95;;;;;29.50;93893.00;;;;7393370;19;20180;-77
2022/07/25 07:32:36;;;;;;;7.65;6.85;;;;;29.80;93894.00;;;;7396376;19;20125;-77
2022/07/25 07:35:04;;;;;;;7.07;6.38;;;;;29.90;93892.00;;;;7394960;19;20591;-79
2022/07/25 07:37:32;;;;;;;7.32;6.72;;;;;29.90;93897.00;;;;7394070;19;20496;-79
2022/07/25 07:40:12;;;;;;;9.68;7.55;;;;;30.10;93898.00;;;;7395412;19;20164;-77
2022/07/25 07:42:47;;;;;;;10.07;6.18;;;;;30.10;93890.00;;;;7394617;19;20207;-77
2022/07/25 07:45:24;;;;;;;7.57;6.88;;;;;30.30;93891.00;;;;7393700;19;20151;-79
2022/07/25 07:47:53;;;;;;;7.78;6.70;;;;;30.30;93898.00;;;;7392628;19;20152;-78
2022/07/25 07:50:24;;;;;;;7.35;5.95;;;;;30.50;93891.00;;;;7397601;19;20147;-78
2022/07/25 07:53:00;;;;;;;7.38;6.70;;;;;30.30;93891.00;;;;7396491;19;20167;-78
2022/07/25 07:55:54;;;;;;;7.35;6.68;;;;;30.60;93895.00;;;;7393942;19;20611;-78
2022/07/25 07:58:28;;;;;;;7.55;6.82;;;;;31.00;93892.00;;;;7395686;19;20538;-79
2022/07/25 08:00:56;;;;;;;8.82;6.25;;;;;31.00;93893.00;;;;7396062;19;20600;-78
2022/07/25 08:03:25;;;;;;;6.95;6.20;;;;;31.10;93888.00;;;;7392609;19;20125;-79
2022/07/25 08:06:03;;;;;;;6.93;6.22;;;;;31.30;93895.00;;;;7392565;19;20149;-78
2022/07/25 08:08:32;;;;;;;7.20;5.88;;;;;31.20;93898.00;;;;7395137;19;20515;-79
2022/07/25 08:11:20;;;;;;;6.20;5.60;;;;;31.10;93895.00;;;;7395757;19;20175;-77
2022/07/25 08:13:47;;;;;;;7.20;5.78;;;;;31.10;93897.00;;;;7395680;19;20149;-79
2022/07/25 08:16:22;;;;;;;5.40;4.90;;;;;31.10;93898.00;;;;7403211;19;20603;-76
2022/07/25 08:18:51;;;;;;;6.38;5.22;;;;;30.90;93899.00;;;;7403468;19;20144;-76
2022/07/25 08:21:18;;;;;;;5.25;4.75;;;;;31.00;93894.00;;;;7398163;19;20148;-76
2022/07/25 08:23:53;;;;;;;5.55;5.10;;;;;31.20;93898.00;;;;7400849;19;20199;-79
2022/07/25 08:26:21;;;;;;;5.82;5.32;;;;;31.40;93902.00;;;;7402598;19;20821;-77
2022/07/25 08:28:49;;;;;;;5.38;4.95;;;;;31.20;93898.00;;;;7402963;19;20165;-80
2022/07/25 08:31:43;;;;;;;6.10;5.43;;;;;30.90;93902.00;;;;7396451;19;20159;-75
2022/07/25 08:34:12;;;;;;;5.63;5.13;;;;;31.40;93906.00;;;;7400679;19;20542;-78
2022/07/25 08:36:47;;;;;;;6.05;5.38;;;;;31.80;93914.00;;;;7400265;19;20220;-78
2022/07/25 08:39:15;;;;;;;6.82;5.07;;;;;32.10;93906.00;;;;7402302;19;20144;-78
2022/07/25 08:41:44;;;;;;;6.07;5.57;;;;;32.10;93914.00;;;;7400422;19;20152;-78
2022/07/25 08:44:20;;;;;;;7.13;5.10;;;;;32.10;93915.00;;;;7399427;19;20511;-76
2022/07/25 08:46:48;;;;;;;5.43;4.93;;;;;32.10;93904.00;;;;7401814;19;20602;-78
2022/07/25 08:49:16;;;;;;;6.40;5.10;;;;;31.70;93915.00;;;;7402768;19;20125;-78
2022/07/25 08:51:51;;;;;;;5.68;5.18;;;;;31.60;93920.00;;;;7401957;19;20136;-76
2022/07/25 08:54:19;;;;;;;5.70;5.00;;;;;31.70;93925.00;;;;7399330;19;20902;-76
2022/07/25 08:56:56;;;;;;;6.30;5.10;;;;;31.70;93924.00;;;;7400776;19;20149;-78
2022/07/25 08:59:32;;;;;;;6.10;5.10;;;;;31.70;93924.00;;;;7398670;19;20157;-79
2022/07/25 09:02:02;;;;;;;6.13;5.30;;;;;32.00;93915.00;;;;7399308;19;20217;-75
2022/07/25 09:04:34;;;;;;;5.45;4.95;;;;;31.70;93924.00;;;;7399458;19;20146;-76
2022/07/25 09:07:08;;;;;;;5.70;5.20;;;;;32.00;93915.00;;;;7396592;19;20137;-77
2022/07/25 09:09:38;;;;;;;5.38;4.95;;;;;32.10;93913.00;;;;7398789;19;20132;-77
2022/07/25 09:12:06;;;;;;;5.35;4.95;;;;;31.90;93906.00;;;;7396830;19;20188;-78
2022/07/25 09:14:42;;;;;;;5.00;4.60;;;;;32.20;93909.00;;;;7398796;19;20139;-78
2022/07/25 09:17:10;;;;;;;5.55;5.05;;;;;32.50;93907.00;;;;7398896;19;20144;-77
2022/07/25 09:19:56;;;;;;;5.47;4.97;;;;;32.50;93898.00;;;;7397757;19;20156;-78
2022/07/25 09:22:30;;;;;;;5.65;5.15;;;;;32.60;93900.00;;;;7398904;19;20144;-75
2022/07/25 09:24:58;;;;;;;5.22;4.72;;;;;32.80;93908.00;;;;7398571;19;20212;-78
2022/07/25 09:27:33;;;;;;;5.32;4.93;;;;;32.60;93903.00;;;;7394342;19;20175;-78
2022/07/25 09:30:15;;;;;;;6.35;5.60;;;;;32.70;93909.00;;;;7396150;19;20162;-78
2022/07/25 09:32:43;;;;;;;5.65;5.18;;;;;32.30;93895.00;;;;7398509;19;20144;-78
2022/07/25 09:35:28;;;;;;;5.95;4.95;;;;;32.50;93896.00;;;;7400880;19;20487;-77
2022/07/25 09:38:09;;;;;;;6.07;4.95;;;;;32.90;93900.00;;;;7399252;19;20516;-77
2022/07/25 09:40:56;;;;;;;5.70;4.90;;;;;33.30;93892.00;;;;7400954;19;20204;-77
2022/07/25 09:43:39;;;;;;;6.90;5.22;;;;;33.00;93903.00;;;;7397448;19;20533;-78
2022/07/25 09:46:13;;;;;;;5.00;4.60;;;;;33.00;93905.00;;;;7401287;19;20129;-78
2022/07/25 09:48:44;;;;;;;5.53;5.03;;;;;32.90;93909.00;;;;7399039;19;20136;-77
2022/07/25 09:51:12;;;;;;;6.57;5.00;;;;;32.90;93907.00;;;;7399459;19;20503;-78
2022/07/25 09:53:48;;;;;;;4.93;4.53;;;;;33.20;93900.00;;;;7398820;19;20929;-78
2022/07/25 09:56:16;;;;;;;5.63;4.50;;;;;32.80;93890.00;;;;7399672;19;20144;-77
2022/07/25 09:58:45;;;;;;;7.20;4.82;;;;;33.00;93905.00;;;;7398981;19;20173;-76
2022/07/25 10:01:33;;;;;;;5.22;4.75;;;;;33.00;93901.00;;;;7397716;19;20633;-76
2022/07/25 10:04:21;;;;;;;5.05;4.63;;;;;32.90;93898.00;;;;7397646;19;20132;-77
2022/07/25 10:07:14;;;;;;;5.75;5.25;;;;;33.10;93895.00;;;;7398419;19;20120;-77
2022/07/25 10:09:53;;;;;;;5.57;5.05;;;;;33.40;93892.00;;;;7396382;19;20159;-78
2022/07/25 10:12:37;;;;;;;5.75;5.25;;;;;33.30;93889.00;;;;7394502;19;20191;-76
2022/07/25 10:15:12;;;;;;;5.75;5.28;;;;;33.60;93885.00;;;;7399408;19;20144;-78
2022/07/25 10:17:49;;;;;;;6.10;5.50;;;;;33.40;93884.00;;;;7397599;19;20116;-75
2022/07/25 10:20:27;;;;;;;5.50;4.75;;;;;33.40;93883.00;;;;7396967;19;20168;-79
2022/07/25 10:23:02;;;;;;;9.32;5.10;;;;;33.80;93881.00;;;;7396865;19;20152;-79
2022/07/25 10:25:30;;;;;;;6.15;5.55;;;;;33.80;93886.00;;;;7395316;19;20159;-79
2022/07/25 10:28:07;;;;;;;5.50;5.00;;;;;33.50;93874.00;;;;7397632;19;20144;-77
2022/07/25 10:30:42;;;;;;;5.00;4.60;;;;;33.40;93884.00;;;;7397583;19;20141;-79
2022/07/25 10:33:20;;;;;;;5.20;4.75;;;;;33.70;93883.00;;;;7397914;19;20128;-78
2022/07/25 10:36:06;;;;;;;5.30;4.80;;;;;33.50;93885.00;;;;7395511;19;20148;-77
2022/07/25 10:38:37;;;;;;;8.13;5.40;;;;;33.60;93873.00;;;;7396784;19;20136;-79
2022/07/25 10:41:14;;;;;;;5.57;5.15;;;;;33.90;93863.00;;;;7395817;19;20144;-79
2022/07/25 10:43:45;;;;;;;4.95;4.55;;;;;34.00;93871.00;;;;7395941;19;20144;-77
2022/07/25 10:46:22;;;;;;;6.45;5.10;;;;;34.10;93862.00;;;;7394929;19;20159;-77
2022/07/25 10:48:59;;;;;;;5.47;4.97;;;;;34.00;93854.00;;;;7396738;19;20221;-77
2022/07/25 10:51:36;;;;;;;6.53;5.10;;;;;35.00;93849.00;;;;7393542;19;20495;-79
2022/07/25 10:54:16;;;;;;;5.68;5.03;;;;;35.10;93849.00;;;;7393590;19;20191;-79
2022/07/25 10:56:58;;;;;;;5.60;4.80;;;;;35.60;93851.00;;;;7395093;19;20144;-82
2022/07/25 10:59:35;;;;;;;6.40;4.95;;;;;35.50;93843.00;;;;7391084;19;20500;-79
2022/07/25 11:02:15;;;;;;;5.97;5.38;;;;;35.00;93852.00;;;;7394932;19;20226;-76
2022/07/25 11:04:44;;;;;;;5.80;5.30;;;;;34.90;93864.00;;;;7395021;19;20509;-77
2022/07/25 11:07:18;;;;;;;6.57;5.25;;;;;34.70;93851.00;;;;7394321;19;20514;-77
2022/07/25 11:10:00;;;;;;;4.97;4.50;;;;;34.30;93851.00;;;;7391535;19;20135;-77
2022/07/25 11:12:41;;;;;;;5.28;4.85;;;;;34.70;93854.00;;;;7391469;19;20627;-75
2022/07/25 11:15:13;;;;;;;7.32;4.65;;;;;34.30;93869.00;;;;7393088;19;20151;-78
2022/07/25 11:17:54;;;;;;;6.03;5.05;;;;;33.70;93869.00;;;;7392972;19;20160;-81
2022/07/25 11:20:22;;;;;;;5.28;4.88;;;;;33.30;93857.00;;;;7393556;19;20586;-78
2022/07/25 11:22:56;;;;;;;5.65;5.25;;;;;33.10;93862.00;;;;7392950;19;20156;-78
2022/07/25 11:25:24;;;;;;;5.70;5.20;;;;;33.70;93851.00;;;;7390414;19;20615;-80
2022/07/25 11:28:02;;;;;;;5.90;5.40;;;;;34.30;93860.00;;;;7392646;19;20172;-78
2022/07/25 11:30:37;;;;;;;5.68;5.10;;;;;34.70;93851.00;;;;7390672;19;20140;-77
2022/07/25 11:33:07;;;;;;;5.70;5.30;;;;;34.70;93859.00;;;;7391574;19;20598;-77
2022/07/25 11:35:37;;;;;;;5.82;5.35;;;;;34.30;93866.00;;;;7392204;19;20128;-77
2022/07/25 11:38:13;;;;;;;6.97;5.72;;;;;33.70;93873.00;;;;7390926;19;20208;-77
2022/07/25 11:40:45;;;;;;;5.93;5.43;;;;;33.10;93861.00;;;;7392685;19;20160;-76
2022/07/25 11:43:24;;;;;;;5.53;5.13;;;;;32.90;93872.00;;;;7389534;19;20152;-79
2022/07/25 11:46:00;;;;;;;6.00;5.50;;;;;33.20;93861.00;;;;7390960;19;20140;-77
2022/07/25 11:48:38;;;;;;;6.13;5.30;;;;;33.10;93853.00;;;;7391317;19;20152;-78
2022/07/25 11:51:16;;;;;;;7.50;6.10;;;;;33.20;93867.00;;;;7391663;19;20128;-78
2022/07/25 11:53:51;;;;;;;6.63;5.80;;;;;33.40;93862.00;;;;7390390;19;20619;-78
2022/07/25 11:56:21;;;;;;;6.78;6.22;;;;;33.30;93867.00;;;;7391704;19;20171;-79
2022/07/25 11:59:09;;;;;;;6.80;6.18;;;;;32.80;93864.00;;;;7392091;19;20668;-77
2022/07/25 12:01:44;;;;;;;7.10;6.40;;;;;32.90;93863.00;;;;7389690;19;20180;-76
2022/07/25 12:04:15;;;;;;;6.40;5.90;;;;;33.10;93870.00;;;;7390217;19;20671;-77
2022/07/25 12:06:48;;;;;;;6.63;6.03;;;;;32.90;93870.00;;;;7392871;19;20607;-78
2022/07/25 12:09:22;;;;;;;6.82;6.22;;;;;32.20;93867.00;;;;7387162;19;20760;-78
2022/07/25 12:12:10;;;;;;;6.85;6.25;;;;;32.10;93874.00;;;;7388866;19;20187;-80
2022/07/25 12:14:44;;;;;;;6.72;6.03;;;;;32.30;93870.00;;;;7391439;19;20170;-76
2022/07/25 12:17:12;;;;;;;7.07;6.38;;;;;32.20;93871.00;;;;7388983;19;20136;-77
2022/07/25 12:19:43;;;;;;;6.68;6.13;;;;;31.90;93864.00;;;;7388823;19;20449;-78
2022/07/25 12:22:18;;;;;;;6.28;5.75;;;;;32.80;93859.00;;;;7390164;19;20124;-75
2022/07/25 12:24:46;;;;;;;6.95;6.32;;;;;33.50;93846.00;;;;7391797;19;20152;-77
2022/07/25 12:27:14;;;;;;;6.95;6.35;;;;;34.20;93840.00;;;;7391235;19;20152;-77
2022/07/25 12:29:48;;;;;;;6.30;5.80;;;;;33.80;93840.00;;;;7389488;19;20158;-76
2022/07/25 12:32:16;;;;;;;6.53;5.78;;;;;33.80;93850.00;;;;7392129;19;20132;-77
2022/07/25 12:34:45;;;;;;;6.75;6.15;;;;;32.90;93851.00;;;;7391429;19;20132;-78
2022/07/25 12:37:20;;;;;;;6.70;6.20;;;;;32.50;93851.00;;;;7388666;19;20148;-77
2022/07/25 12:39:48;;;;;;;6.68;6.07;;;;;32.60;93846.00;;;;7390444;19;20132;-77
2022/07/25 12:42:21;;;;;;;7.00;6.40;;;;;32.70;93842.00;;;;7390078;19;20187;-76